createdAt,value
2022-08-16T00:00:04.231Z,11.93
2022-08-16T00:02:33.142Z,12.95
2022-08-16T00:05:00.421Z,12.07
2022-08-16T00:07:30.132Z,12.10
2022-08-16T00:09:59.154Z,12.07
2022-08-16T00:12:30.085Z,12.77
2022-08-16T00:14:59.788Z,11.98
2022-08-16T00:17:26.786Z,12.00
2022-08-16T00:19:55.743Z,12.18
2022-08-16T00:22:25.368Z,10.85
2022-08-16T00:24:54.369Z,11.85
2022-08-16T00:27:22.012Z,12.02
2022-08-16T00:30:08.295Z,11.95
2022-08-16T00:32:40.790Z,12.07
2022-08-16T00:35:15.654Z,11.10
2022-08-16T00:37:57.412Z,12.65
2022-08-16T00:40:50.873Z,11.50
2022-08-16T00:43:42.711Z,12.10
2022-08-16T00:46:22.291Z,12.32
2022-08-16T00:49:02.732Z,11.68
2022-08-16T00:51:29.758Z,11.23
2022-08-16T00:53:58.567Z,10.85
2022-08-16T00:56:58.505Z,11.02
2022-08-16T00:59:19.108Z,11.65
2022-08-16T01:01:46.120Z,12.60
2022-08-16T01:04:29.049Z,12.95
2022-08-16T01:07:01.834Z,13.02
2022-08-16T01:09:34.072Z,12.43
2022-08-16T01:12:04.307Z,12.60
2022-08-16T01:14:41.262Z,12.15
2022-08-16T01:17:13.168Z,13.00
2022-08-16T01:19:48.312Z,12.40
2022-08-16T01:22:50.099Z,13.77
2022-08-16T01:25:34.616Z,13.25
2022-08-16T01:28:07.902Z,13.90
2022-08-16T01:30:39.993Z,13.52
2022-08-16T01:33:19.286Z,13.70
2022-08-16T01:35:58.442Z,13.38
2022-08-16T01:38:30.057Z,12.95
2022-08-16T01:41:19.272Z,13.45
2022-08-16T01:43:54.160Z,13.45
2022-08-16T01:46:29.642Z,14.15
2022-08-16T01:49:03.185Z,14.05
2022-08-16T01:51:30.837Z,13.57
2022-08-16T01:53:58.776Z,14.68
2022-08-16T01:56:26.888Z,14.77
2022-08-16T01:58:55.678Z,14.80
2022-08-16T02:01:26.114Z,14.20
2022-08-16T02:03:58.445Z,14.65
2022-08-16T02:06:34.325Z,14.10
2022-08-16T02:09:06.524Z,14.43
2022-08-16T02:11:48.101Z,14.70
2022-08-16T02:14:21.659Z,13.52
2022-08-16T02:16:49.503Z,12.13
2022-08-16T02:19:18.510Z,12.40
2022-08-16T02:22:09.322Z,10.93
2022-08-16T02:24:41.154Z,10.77
2022-08-16T02:27:09.197Z,11.00
2022-08-16T02:29:36.110Z,11.93
2022-08-16T02:33:02.405Z,11.90
2022-08-16T02:34:50.322Z,11.57
2022-08-16T02:37:20.915Z,11.27
2022-08-16T02:39:53.753Z,13.27
2022-08-16T02:42:21.369Z,13.52
2022-08-16T02:44:49.005Z,14.73
2022-08-16T02:47:25.400Z,15.35
2022-08-16T02:50:52.892Z,16.63
2022-08-16T02:52:46.036Z,17.60
2022-08-16T02:55:16.667Z,17.27
2022-08-16T02:58:03.515Z,17.15
2022-08-16T03:00:34.963Z,17.55
2022-08-16T03:03:03.520Z,16.38
2022-08-16T03:05:31.622Z,15.18
2022-08-16T03:07:58.642Z,16.35
2022-08-16T03:10:33.456Z,16.63
2022-08-16T03:13:01.269Z,17.02
2022-08-16T03:15:28.703Z,17.83
2022-08-16T03:17:55.958Z,18.80
2022-08-16T03:20:32.126Z,18.05
2022-08-16T03:22:59.619Z,18.38
2022-08-16T03:25:41.019Z,17.17
2022-08-16T03:28:11.131Z,15.50
2022-08-16T03:30:38.522Z,15.85
2022-08-16T03:33:05.659Z,15.88
2022-08-16T03:35:36.833Z,16.23
2022-08-16T03:38:34.686Z,16.45
2022-08-16T03:40:57.246Z,15.85
2022-08-16T03:43:51.148Z,14.57
2022-08-16T03:46:13.466Z,16.80
2022-08-16T03:49:00.289Z,14.43
2022-08-16T03:51:28.837Z,14.25
2022-08-16T03:53:57.682Z,13.68
2022-08-16T03:56:30.473Z,14.55
2022-08-16T03:58:57.680Z,12.13
2022-08-16T04:01:29.280Z,11.30
2022-08-16T04:03:57.083Z,11.45
2022-08-16T04:06:23.747Z,11.43
2022-08-16T04:08:50.623Z,11.55
2022-08-16T04:11:18.131Z,11.00
2022-08-16T04:13:59.892Z,11.65
2022-08-16T04:16:33.860Z,11.68
2022-08-16T04:19:04.382Z,12.20
2022-08-16T04:21:36.140Z,11.55
2022-08-16T04:24:12.929Z,13.00
2022-08-16T04:26:46.325Z,11.88
2022-08-16T04:29:23.315Z,11.80
2022-08-16T04:31:56.629Z,13.45
2022-08-16T04:34:32.318Z,13.93
2022-08-16T04:37:01.551Z,14.30
2022-08-16T04:39:36.606Z,15.35
2022-08-16T04:42:10.979Z,13.68
2022-08-16T04:44:53.838Z,14.13
2022-08-16T04:47:32.925Z,13.40
2022-08-16T04:50:20.097Z,14.50
2022-08-16T04:52:48.717Z,14.75
2022-08-16T04:55:20.880Z,15.23
2022-08-16T04:57:58.920Z,12.57
2022-08-16T05:00:33.743Z,11.98
2022-08-16T05:03:10.578Z,11.82
2022-08-16T05:05:45.353Z,11.02
2022-08-16T05:08:29.428Z,9.52
2022-08-16T05:11:01.304Z,10.23
2022-08-16T05:13:40.768Z,9.73
2022-08-16T05:16:16.607Z,9.90
2022-08-16T05:18:48.117Z,10.68
2022-08-16T05:21:15.100Z,11.70
2022-08-16T05:23:44.389Z,10.57
2022-08-16T05:26:20.102Z,9.43
2022-08-16T05:28:55.583Z,8.23
2022-08-16T05:31:29.304Z,7.82
2022-08-16T05:33:58.633Z,7.55
2022-08-16T05:36:36.594Z,9.70
2022-08-16T05:39:09.632Z,8.85
2022-08-16T05:41:45.290Z,8.80
2022-08-16T05:44:23.298Z,8.15
2022-08-16T05:46:54.847Z,8.82
2022-08-16T05:49:23.081Z,8.73
2022-08-16T05:51:50.001Z,8.38
2022-08-16T05:54:25.647Z,8.98
2022-08-16T05:56:53.519Z,9.10
2022-08-16T05:59:22.150Z,9.90
2022-08-16T06:01:50.701Z,8.85
2022-08-16T06:04:35.424Z,9.48
2022-08-16T06:07:08.799Z,9.20
2022-08-16T06:09:43.283Z,10.55
2022-08-16T06:12:27.005Z,11.43
2022-08-16T06:15:01.793Z,11.13
2022-08-16T06:17:42.363Z,9.88
2022-08-16T06:20:14.614Z,9.98
2022-08-16T06:22:41.527Z,9.75
2022-08-16T06:25:12.979Z,10.30
2022-08-16T06:27:57.605Z,9.80
2022-08-16T06:30:28.851Z,9.82
2022-08-16T06:32:56.104Z,9.68
2022-08-16T06:35:24.101Z,9.30
2022-08-16T06:37:51.181Z,9.68
2022-08-16T06:40:18.567Z,9.60
2022-08-16T06:42:47.521Z,10.30
2022-08-16T06:45:14.698Z,10.80
2022-08-16T06:47:52.922Z,10.13
2022-08-16T06:50:28.954Z,9.55
2022-08-16T06:53:01.094Z,9.77
2022-08-16T06:55:38.213Z,9.13
2022-08-16T06:58:08.853Z,9.82
2022-08-16T07:00:48.674Z,10.38
2022-08-16T07:03:27.349Z,10.68
2022-08-16T07:05:56.948Z,10.07
2022-08-16T07:08:27.459Z,9.43
2022-08-16T07:10:54.734Z,9.90
2022-08-16T07:13:55.636Z,10.63
2022-08-16T07:16:15.440Z,9.88
2022-08-16T07:18:59.006Z,9.75
2022-08-16T07:21:28.673Z,8.95
2022-08-16T07:24:29.585Z,9.93
2022-08-16T07:26:58.978Z,9.50
2022-08-16T07:29:28.170Z,9.13
2022-08-16T07:31:58.959Z,9.63
2022-08-16T07:34:35.585Z,8.48
2022-08-16T07:37:08.341Z,9.05
2022-08-16T07:39:43.202Z,8.25
2022-08-16T07:42:25.907Z,7.55
2022-08-16T07:44:58.848Z,8.88
2022-08-16T07:47:31.305Z,8.23
2022-08-16T07:49:59.753Z,8.00
2022-08-16T07:52:29.849Z,8.07
2022-08-16T07:54:57.734Z,7.30
2022-08-16T07:57:25.057Z,7.93
2022-08-16T07:59:53.346Z,7.03
2022-08-16T08:02:23.912Z,7.32
2022-08-16T08:04:55.831Z,6.28
2022-08-16T08:07:28.095Z,6.72
2022-08-16T08:09:56.485Z,6.82
2022-08-16T08:12:31.940Z,6.97
2022-08-16T08:15:09.728Z,6.22
2022-08-16T08:17:42.624Z,7.05
2022-08-16T08:20:23.852Z,5.40
2022-08-16T08:23:01.068Z,4.65
2022-08-16T08:25:54.468Z,3.03
2022-08-16T08:28:18.515Z,2.47
2022-08-16T08:30:51.425Z,2.50
2022-08-16T08:33:27.778Z,2.78
2022-08-16T08:36:01.105Z,2.90
2022-08-16T08:38:44.962Z,2.78
2022-08-16T08:41:12.843Z,2.60
2022-08-16T08:43:41.275Z,2.55
2022-08-16T08:46:17.867Z,2.22
2022-08-16T08:48:45.507Z,2.65
2022-08-16T08:51:31.833Z,2.17
2022-08-16T08:54:06.891Z,2.38
2022-08-16T08:56:37.817Z,1.77
2022-08-16T08:59:20.247Z,2.90
2022-08-16T09:01:56.544Z,3.17
2022-08-16T09:04:26.884Z,2.33
2022-08-16T09:06:54.758Z,2.15
2022-08-16T09:09:22.805Z,2.45
2022-08-16T09:11:53.429Z,2.40
2022-08-16T09:14:23.918Z,2.15
2022-08-16T09:17:03.447Z,2.67
2022-08-16T09:19:34.260Z,2.45
2022-08-16T09:22:01.845Z,1.90
2022-08-16T09:24:46.626Z,2.97
2022-08-16T09:27:15.133Z,2.40
2022-08-16T09:29:44.863Z,2.80
2022-08-16T09:32:28.819Z,2.78
2022-08-16T09:34:58.336Z,2.67
2022-08-16T09:37:29.598Z,2.97
2022-08-16T09:40:00.882Z,3.75
2022-08-16T09:42:28.676Z,1.83
2022-08-16T09:45:11.505Z,3.38
2022-08-16T09:47:56.141Z,1.85
2022-08-16T09:50:33.231Z,2.75
2022-08-16T09:53:07.174Z,2.60
2022-08-16T09:55:44.707Z,1.75
2022-08-16T09:58:14.877Z,2.85
2022-08-16T10:00:58.444Z,2.05
2022-08-16T10:03:30.358Z,2.85
2022-08-16T10:05:58.038Z,2.10
2022-08-16T10:08:25.766Z,2.10
2022-08-16T10:11:12.303Z,2.22
2022-08-16T10:13:39.647Z,2.08
2022-08-16T10:18:56.580Z,2.15
2022-08-16T10:21:24.219Z,2.30
2022-08-16T10:23:53.639Z,2.38
2022-08-16T10:27:17.813Z,2.25
2022-08-16T10:29:20.044Z,2.30
2022-08-16T10:31:53.158Z,2.47
2022-08-16T10:34:30.701Z,1.90
2022-08-16T10:37:02.595Z,2.60
2022-08-16T10:39:40.522Z,2.70
2022-08-16T10:42:09.868Z,2.53
2022-08-16T10:44:36.861Z,3.10
2022-08-16T10:47:04.446Z,3.03
2022-08-16T10:49:32.294Z,2.47
2022-08-16T10:52:01.388Z,3.47
2022-08-16T10:57:15.654Z,3.40
2022-08-16T10:59:51.701Z,4.00
2022-08-16T11:02:58.818Z,3.53
2022-08-16T11:05:15.412Z,2.92
2022-08-16T11:07:52.459Z,2.10
2022-08-16T11:17:02.767Z,2.08
2022-08-16T11:19:04.046Z,3.05
2022-08-16T11:21:33.668Z,2.38
2022-08-16T11:24:01.845Z,3.08
2022-08-16T11:26:30.308Z,2.05
2022-08-16T11:29:14.498Z,2.17
2022-08-16T11:31:42.484Z,3.40
2022-08-16T11:34:15.953Z,3.47
2022-08-16T11:36:59.424Z,4.85
2022-08-16T11:39:29.775Z,4.80
2022-08-16T11:41:57.952Z,4.57
2022-08-16T11:44:45.343Z,4.85
2022-08-16T11:47:13.699Z,4.80
2022-08-16T11:49:40.395Z,6.47
2022-08-16T11:52:07.522Z,4.72
2022-08-16T11:54:36.805Z,3.28
2022-08-16T11:57:08.901Z,3.25
2022-08-16T11:59:40.014Z,3.65
2022-08-16T12:02:32.329Z,2.72
2022-08-16T12:04:54.870Z,2.20
2022-08-16T12:07:23.635Z,1.90
2022-08-16T12:09:53.056Z,2.28
2022-08-16T12:12:21.013Z,2.22
2022-08-16T12:14:59.205Z,1.92
2022-08-16T12:17:28.290Z,1.70
2022-08-16T12:19:59.366Z,1.52
2022-08-16T12:22:27.224Z,2.30
2022-08-16T12:24:53.839Z,2.53
2022-08-16T12:27:27.728Z,2.20
2022-08-16T12:29:58.286Z,2.20
2022-08-16T12:32:35.774Z,1.90
2022-08-16T12:35:16.835Z,1.63
2022-08-16T12:37:46.098Z,2.10
2022-08-16T12:40:24.647Z,2.53
2022-08-16T12:42:54.981Z,3.35
2022-08-16T12:45:28.608Z,2.90
2022-08-16T12:51:02.335Z,2.58
2022-08-16T12:53:31.736Z,2.70
2022-08-16T12:55:59.923Z,4.13
2022-08-16T12:58:50.191Z,4.18
2022-08-16T13:01:15.002Z,3.53
2022-08-16T13:03:44.346Z,2.67
2022-08-16T13:06:12.415Z,2.00
2022-08-16T13:08:39.892Z,3.45
2022-08-16T13:11:07.789Z,3.17
2022-08-16T13:13:35.773Z,3.13
2022-08-16T13:16:15.909Z,2.28
2022-08-16T13:18:52.662Z,2.30
2022-08-16T13:21:23.456Z,1.90
2022-08-16T13:23:55.229Z,2.58
2022-08-16T13:26:23.870Z,2.13
2022-08-16T13:28:50.779Z,1.52
2022-08-16T13:31:17.535Z,1.10
2022-08-16T13:33:45.375Z,0.80
2022-08-16T13:36:21.244Z,0.80
2022-08-16T13:39:00.043Z,0.68
2022-08-16T13:41:30.341Z,0.73
2022-08-16T13:44:00.898Z,0.70
2022-08-16T13:46:32.390Z,0.63
2022-08-16T13:48:59.879Z,0.90
2022-08-16T13:51:29.318Z,0.70
2022-08-16T13:54:03.877Z,1.00
2022-08-16T13:56:37.868Z,0.75
2022-08-16T13:59:20.132Z,0.80
2022-08-16T14:01:55.607Z,1.15
2022-08-16T14:04:28.781Z,1.17
2022-08-16T14:07:00.534Z,1.05
2022-08-16T14:09:30.101Z,0.88
2022-08-16T14:11:58.400Z,1.15
2022-08-16T14:14:29.856Z,0.88
2022-08-16T14:16:58.744Z,1.13
2022-08-16T14:19:27.865Z,0.82
2022-08-16T14:22:14.006Z,1.27
2022-08-16T14:24:46.656Z,0.77
2022-08-16T14:27:15.783Z,0.73
2022-08-16T14:29:44.387Z,0.90
2022-08-16T14:32:21.985Z,1.45
2022-08-16T14:35:00.075Z,1.73
2022-08-16T14:37:27.122Z,1.67
2022-08-16T14:39:54.797Z,1.38
2022-08-16T14:42:26.619Z,1.83
2022-08-16T14:44:54.226Z,1.40
2022-08-16T14:47:22.411Z,1.17
2022-08-16T14:49:49.488Z,1.33
2022-08-16T14:52:44.446Z,1.27
2022-08-16T14:55:10.903Z,0.90
2022-08-16T14:57:40.534Z,0.90
2022-08-16T15:00:11.546Z,1.10
2022-08-16T15:02:40.405Z,1.20
2022-08-16T15:05:09.403Z,0.90
2022-08-16T15:07:36.338Z,0.98
2022-08-16T15:10:08.585Z,1.25
2022-08-16T15:12:49.572Z,1.20
2022-08-16T15:15:20.515Z,1.17
2022-08-16T15:17:53.695Z,0.90
2022-08-16T15:20:22.758Z,0.70
2022-08-16T15:22:53.488Z,1.05
2022-08-16T15:25:35.251Z,0.90
2022-08-16T15:28:05.498Z,0.80
2022-08-16T15:31:00.482Z,0.85
2022-08-16T15:33:25.527Z,0.80
2022-08-16T15:35:52.900Z,0.70
2022-08-16T15:38:55.149Z,0.85
2022-08-16T15:41:27.599Z,0.80
2022-08-16T15:44:05.413Z,0.80
2022-08-16T15:46:56.406Z,0.95
2022-08-16T15:49:38.117Z,0.80
2022-08-16T15:52:18.175Z,0.90
2022-08-16T15:54:53.596Z,0.75
2022-08-16T15:57:28.004Z,0.88
2022-08-16T16:00:04.840Z,1.30
2022-08-16T16:02:41.330Z,1.13
2022-08-16T16:05:09.844Z,1.10
2022-08-16T16:07:37.894Z,1.17
2022-08-16T16:10:13.186Z,1.08
2022-08-16T16:12:50.892Z,1.27
2022-08-16T16:15:25.933Z,1.42
2022-08-16T16:17:56.496Z,1.63
2022-08-16T16:20:27.182Z,1.27
2022-08-16T16:22:59.866Z,1.20
2022-08-16T16:25:29.329Z,1.30
2022-08-16T16:27:59.979Z,1.17
2022-08-16T16:30:33.213Z,1.52
2022-08-16T16:33:15.494Z,1.60
2022-08-16T16:35:48.009Z,1.60
2022-08-16T16:38:29.087Z,1.52
2022-08-16T16:41:00.926Z,1.70
2022-08-16T16:43:31.989Z,1.58
2022-08-16T16:46:05.862Z,2.70
2022-08-16T16:48:51.698Z,2.72
2022-08-16T16:51:19.798Z,2.10
2022-08-16T16:53:56.263Z,1.80
2022-08-16T16:56:30.267Z,2.92
2022-08-16T16:59:08.903Z,3.63
2022-08-16T17:02:00.121Z,3.40
2022-08-16T17:04:32.766Z,2.45
2022-08-16T17:07:01.716Z,3.10
2022-08-16T17:09:28.823Z,2.97
2022-08-16T17:11:56.707Z,2.63
2022-08-16T17:14:32.724Z,2.47
2022-08-16T17:17:06.996Z,2.42
2022-08-16T17:19:40.277Z,2.05
2022-08-16T17:22:15.117Z,2.45
2022-08-16T17:24:45.062Z,2.10
2022-08-16T17:27:17.898Z,2.97
2022-08-16T17:29:51.362Z,3.08
2022-08-16T17:32:47.330Z,2.17
2022-08-16T17:35:18.868Z,2.80
2022-08-16T17:37:50.795Z,3.17
2022-08-16T17:40:46.797Z,2.78
2022-08-16T17:43:16.492Z,2.55
2022-08-16T17:45:43.757Z,3.15
2022-08-16T17:48:11.500Z,3.60
2022-08-16T17:50:38.798Z,2.88
2022-08-16T17:53:06.668Z,3.20
2022-08-16T17:55:38.372Z,3.00
2022-08-16T17:58:14.562Z,3.53
2022-08-16T18:00:52.356Z,3.45
2022-08-16T18:04:06.833Z,3.13
2022-08-16T18:06:13.255Z,2.75
2022-08-16T18:08:41.508Z,2.28
2022-08-16T18:11:10.216Z,2.80
2022-08-16T18:13:43.006Z,3.30
2022-08-16T18:16:10.684Z,3.15
2022-08-16T18:18:37.546Z,3.58
2022-08-16T18:21:22.776Z,3.47
2022-08-16T18:23:49.494Z,3.22
2022-08-16T18:26:16.254Z,3.10
2022-08-16T18:28:43.028Z,2.80
2022-08-16T18:31:09.886Z,2.85
2022-08-16T18:33:43.654Z,2.90
2022-08-16T18:36:20.396Z,2.85
2022-08-16T18:38:49.503Z,3.20
2022-08-16T18:41:16.703Z,3.17
2022-08-16T18:44:00.964Z,2.17
2022-08-16T18:46:31.048Z,2.40
2022-08-16T18:48:57.691Z,3.35
2022-08-16T18:51:25.386Z,2.88
2022-08-16T18:53:52.965Z,2.92
2022-08-16T18:56:19.922Z,2.50
2022-08-16T18:58:46.634Z,3.75
2022-08-16T19:01:13.540Z,2.30
2022-08-16T19:03:40.204Z,17.08
2022-08-16T19:06:11.377Z,3.58
2022-08-16T19:08:41.686Z,3.13
2022-08-16T19:11:14.037Z,2.78
2022-08-16T19:13:44.542Z,2.72
2022-08-16T19:16:12.284Z,4.13
2022-08-16T19:18:39.222Z,2.15
2022-08-16T19:21:07.665Z,2.85
2022-08-16T19:23:37.071Z,2.22
2022-08-16T19:26:07.687Z,3.97
2022-08-16T19:28:58.376Z,2.92
2022-08-16T19:31:32.954Z,1.83
2022-08-16T19:34:00.529Z,2.35
2022-08-16T19:36:35.358Z,1.95
2022-08-16T19:39:08.894Z,2.58
2022-08-16T19:41:39.195Z,1.88
2022-08-16T19:44:06.628Z,2.10
2022-08-16T19:46:33.595Z,1.90
2022-08-16T19:49:00.629Z,2.35
2022-08-16T19:51:27.607Z,1.83
2022-08-16T19:53:54.439Z,1.90
2022-08-16T19:56:23.935Z,1.73
2022-08-16T19:59:17.358Z,1.65
2022-08-16T20:01:41.921Z,2.20
2022-08-16T20:04:12.524Z,1.30
2022-08-16T20:06:40.716Z,2.00
2022-08-16T20:09:07.539Z,1.95
2022-08-16T20:11:35.425Z,1.70
2022-08-16T20:14:02.685Z,1.52
2022-08-16T20:16:29.803Z,1.90
2022-08-16T20:18:56.799Z,1.30
2022-08-16T20:21:24.531Z,1.45
2022-08-16T20:23:51.547Z,1.55
2022-08-16T20:26:19.018Z,1.50
2022-08-16T20:28:53.868Z,1.20
2022-08-16T20:31:25.749Z,1.60
2022-08-16T20:33:53.304Z,1.65
2022-08-16T20:36:20.426Z,1.65
2022-08-16T20:38:48.041Z,1.70
2022-08-16T20:41:16.402Z,1.70
2022-08-16T20:43:43.525Z,1.48
2022-08-16T20:46:12.313Z,1.60
2022-08-16T20:48:39.023Z,1.95
2022-08-16T20:51:07.024Z,1.63
2022-08-16T20:53:34.104Z,1.35
2022-08-16T20:56:00.857Z,1.50
2022-08-16T20:58:27.555Z,1.50
2022-08-16T21:00:54.276Z,1.23
2022-08-16T21:03:21.504Z,2.00
2022-08-16T21:05:48.399Z,1.58
2022-08-16T21:08:50.061Z,1.30
2022-08-16T21:11:04.175Z,1.25
2022-08-16T21:13:32.735Z,1.80
2022-08-16T21:16:01.130Z,1.63
2022-08-16T21:18:28.253Z,1.63
2022-08-16T21:20:55.210Z,1.80
2022-08-16T21:23:22.168Z,1.52
2022-08-16T21:25:59.202Z,1.73
2022-08-16T21:28:39.061Z,1.73
2022-08-16T21:31:13.460Z,1.73
2022-08-16T21:33:41.159Z,1.60
2022-08-16T21:36:08.231Z,1.52
2022-08-16T21:38:35.128Z,1.60
2022-08-16T21:41:04.681Z,1.63
2022-08-16T21:43:33.553Z,1.83
2022-08-16T21:46:05.073Z,1.40
2022-08-16T21:48:33.993Z,1.92
2022-08-16T21:51:06.589Z,1.40
2022-08-16T21:53:34.265Z,1.70
2022-08-16T21:56:02.128Z,1.80
2022-08-16T21:58:30.003Z,1.70
2022-08-16T22:00:57.154Z,1.60
2022-08-16T22:03:24.339Z,1.50
2022-08-16T22:06:11.691Z,1.60
2022-08-16T22:08:45.683Z,2.13
2022-08-16T22:11:24.495Z,2.05
2022-08-16T22:13:58.932Z,2.42
2022-08-16T22:16:32.056Z,2.47
2022-08-16T22:18:59.544Z,2.28
2022-08-16T22:21:26.692Z,2.15
2022-08-16T22:23:57.234Z,2.00
2022-08-16T22:26:32.034Z,2.50
2022-08-16T22:29:07.386Z,2.13
2022-08-16T22:31:35.429Z,2.20
2022-08-16T22:34:02.460Z,2.28
2022-08-16T22:36:31.096Z,2.10
2022-08-16T22:38:59.801Z,2.35
2022-08-16T22:41:32.068Z,2.53
2022-08-16T22:44:00.216Z,2.20
2022-08-16T22:46:27.053Z,2.70
2022-08-16T22:48:54.082Z,2.60
2022-08-16T22:51:22.775Z,2.67
2022-08-16T22:53:49.675Z,3.17
2022-08-16T22:56:17.551Z,2.72
2022-08-16T22:58:45.680Z,3.00
2022-08-16T23:01:13.606Z,2.97
2022-08-16T23:03:41.308Z,2.72
2022-08-16T23:06:08.969Z,2.60
2022-08-16T23:08:40.314Z,2.28
2022-08-16T23:11:21.445Z,2.75
2022-08-16T23:13:56.365Z,3.08
2022-08-16T23:16:33.082Z,3.22
2022-08-16T23:19:10.744Z,2.60
2022-08-16T23:21:39.773Z,3.03
2022-08-16T23:24:07.971Z,3.05
2022-08-16T23:26:45.254Z,2.83
2022-08-16T23:29:15.958Z,3.10
2022-08-16T23:31:49.457Z,2.75
2022-08-16T23:34:16.130Z,3.25
2022-08-16T23:36:42.790Z,3.70
2022-08-16T23:39:09.450Z,2.88
2022-08-16T23:41:36.376Z,3.15
2022-08-16T23:44:42.363Z,2.97
2022-08-16T23:46:49.953Z,2.25
2022-08-16T23:49:56.590Z,2.97
2022-08-16T23:52:10.451Z,2.38
2022-08-16T23:54:37.160Z,2.88
2022-08-16T23:57:04.048Z,3.45
2022-08-16T23:59:41.107Z,2.92
